sensor_id;sensor_type;location;lat;lon;timestamp;temperature;humidity
3648;DHT22;1840;48.892;15.312;2023-05-02T00:00:07;7.20;95.30
3648;DHT22;1840;48.892;15.312;2023-05-02T00:02:35;7.10;95.70
3648;DHT22;1840;48.892;15.312;2023-05-02T00:05:04;7.30;95.70
3648;DHT22;1840;48.892;15.312;2023-05-02T00:07:32;7.40;95.80
3648;DHT22;1840;48.892;15.312;2023-05-02T00:10:00;7.40;95.80
3648;DHT22;1840;48.892;15.312;2023-05-02T00:12:30;7.50;95.80
3648;DHT22;1840;48.892;15.312;2023-05-02T00:14:59;7.60;95.90
3648;DHT22;1840;48.892;15.312;2023-05-02T00:17:27;7.60;95.80
3648;DHT22;1840;48.892;15.312;2023-05-02T00:19:56;7.70;96.10
3648;DHT22;1840;48.892;15.312;2023-05-02T00:22:24;7.80;96.00
3648;DHT22;1840;48.892;15.312;2023-05-02T00:24:55;7.80;95.80
3648;DHT22;1840;48.892;15.312;2023-05-02T00:27:24;7.70;95.80
3648;DHT22;1840;48.892;15.312;2023-05-02T00:29:53;7.70;95.90
3648;DHT22;1840;48.892;15.312;2023-05-02T00:32:21;7.80;95.90
3648;DHT22;1840;48.892;15.312;2023-05-02T00:34:50;7.80;95.70
3648;DHT22;1840;48.892;15.312;2023-05-02T00:37:18;7.90;95.80
3648;DHT22;1840;48.892;15.312;2023-05-02T00:39:46;7.80;96.00
3648;DHT22;1840;48.892;15.312;2023-05-02T00:42:14;7.90;96.10
3648;DHT22;1840;48.892;15.312;2023-05-02T00:44:42;8.10;96.10
3648;DHT22;1840;48.892;15.312;2023-05-02T00:47:11;8.10;96.10
3648;DHT22;1840;48.892;15.312;2023-05-02T00:49:41;8.10;96.20
3648;DHT22;1840;48.892;15.312;2023-05-02T00:52:09;8.10;96.20
3648;DHT22;1840;48.892;15.312;2023-05-02T00:54:37;8.00;96.30
3648;DHT22;1840;48.892;15.312;2023-05-02T00:57:06;8.20;96.10
3648;DHT22;1840;48.892;15.312;2023-05-02T00:59:34;8.30;95.90
3648;DHT22;1840;48.892;15.312;2023-05-02T01:02:14;8.30;95.90
3648;DHT22;1840;48.892;15.312;2023-05-02T01:04:54;8.40;96.00
3648;DHT22;1840;48.892;15.312;2023-05-02T01:07:40;8.50;96.00
3648;DHT22;1840;48.892;15.312;2023-05-02T01:10:17;8.60;96.00
3648;DHT22;1840;48.892;15.312;2023-05-02T01:12:50;8.60;96.00
3648;DHT22;1840;48.892;15.312;2023-05-02T01:15:21;8.70;96.00
3648;DHT22;1840;48.892;15.312;2023-05-02T01:17:52;8.80;96.00
3648;DHT22;1840;48.892;15.312;2023-05-02T01:20:24;8.80;96.10
3648;DHT22;1840;48.892;15.312;2023-05-02T01:22:57;8.90;96.10
3648;DHT22;1840;48.892;15.312;2023-05-02T01:25:32;8.90;96.20
3648;DHT22;1840;48.892;15.312;2023-05-02T01:28:12;9.00;96.10
3648;DHT22;1840;48.892;15.312;2023-05-02T01:30:45;9.10;96.00
3648;DHT22;1840;48.892;15.312;2023-05-02T01:33:16;9.10;96.00
3648;DHT22;1840;48.892;15.312;2023-05-02T01:35:46;9.20;96.00
3648;DHT22;1840;48.892;15.312;2023-05-02T01:38:17;9.20;95.90
3648;DHT22;1840;48.892;15.312;2023-05-02T01:40:49;9.20;96.10
3648;DHT22;1840;48.892;15.312;2023-05-02T01:43:19;9.30;96.00
3648;DHT22;1840;48.892;15.312;2023-05-02T01:45:50;9.30;95.90
3648;DHT22;1840;48.892;15.312;2023-05-02T01:48:20;9.40;95.90
3648;DHT22;1840;48.892;15.312;2023-05-02T01:50:50;9.40;95.80
3648;DHT22;1840;48.892;15.312;2023-05-02T01:53:19;9.40;95.80
3648;DHT22;1840;48.892;15.312;2023-05-02T01:55:48;9.40;96.00
3648;DHT22;1840;48.892;15.312;2023-05-02T01:58:18;9.50;95.90
3648;DHT22;1840;48.892;15.312;2023-05-02T02:00:49;9.50;96.00
3648;DHT22;1840;48.892;15.312;2023-05-02T02:03:19;9.50;96.00
3648;DHT22;1840;48.892;15.312;2023-05-02T02:05:48;9.50;96.10
3648;DHT22;1840;48.892;15.312;2023-05-02T02:08:19;9.50;96.00
3648;DHT22;1840;48.892;15.312;2023-05-02T02:10:52;9.40;96.00
3648;DHT22;1840;48.892;15.312;2023-05-02T02:13:27;9.40;96.30
3648;DHT22;1840;48.892;15.312;2023-05-02T02:15:59;9.20;96.80
3648;DHT22;1840;48.892;15.312;2023-05-02T02:18:29;9.30;97.10
3648;DHT22;1840;48.892;15.312;2023-05-02T02:20:59;9.40;97.00
3648;DHT22;1840;48.892;15.312;2023-05-02T02:23:28;9.50;97.00
3648;DHT22;1840;48.892;15.312;2023-05-02T02:25:58;9.40;97.10
3648;DHT22;1840;48.892;15.312;2023-05-02T02:28:28;9.50;97.10
3648;DHT22;1840;48.892;15.312;2023-05-02T02:30:57;9.40;97.10
3648;DHT22;1840;48.892;15.312;2023-05-02T02:33:29;9.20;97.20
3648;DHT22;1840;48.892;15.312;2023-05-02T02:36:02;9.00;97.70
3648;DHT22;1840;48.892;15.312;2023-05-02T02:38:38;9.10;97.60
3648;DHT22;1840;48.892;15.312;2023-05-02T02:41:13;9.00;97.90
3648;DHT22;1840;48.892;15.312;2023-05-02T02:43:49;9.00;97.70
3648;DHT22;1840;48.892;15.312;2023-05-02T02:46:28;9.10;97.80
3648;DHT22;1840;48.892;15.312;2023-05-02T02:49:12;9.00;97.70
3648;DHT22;1840;48.892;15.312;2023-05-02T02:51:46;8.90;98.10
3648;DHT22;1840;48.892;15.312;2023-05-02T02:54:20;9.10;97.70
3648;DHT22;1840;48.892;15.312;2023-05-02T02:56:59;9.30;97.60
3648;DHT22;1840;48.892;15.312;2023-05-02T02:59:31;9.20;97.70
3648;DHT22;1840;48.892;15.312;2023-05-02T03:02:05;9.20;97.50
3648;DHT22;1840;48.892;15.312;2023-05-02T03:04:36;9.10;97.70
3648;DHT22;1840;48.892;15.312;2023-05-02T03:07:04;9.20;97.70
3648;DHT22;1840;48.892;15.312;2023-05-02T03:09:42;9.20;97.60
3648;DHT22;1840;48.892;15.312;2023-05-02T03:12:10;9.20;97.70
3648;DHT22;1840;48.892;15.312;2023-05-02T03:14:39;9.20;97.70
3648;DHT22;1840;48.892;15.312;2023-05-02T03:17:08;9.10;97.80
3648;DHT22;1840;48.892;15.312;2023-05-02T03:19:36;9.20;97.80
3648;DHT22;1840;48.892;15.312;2023-05-02T03:22:05;9.10;97.90
3648;DHT22;1840;48.892;15.312;2023-05-02T03:24:33;9.10;97.80
3648;DHT22;1840;48.892;15.312;2023-05-02T03:27:01;8.90;98.10
3648;DHT22;1840;48.892;15.312;2023-05-02T03:29:29;8.80;98.20
3648;DHT22;1840;48.892;15.312;2023-05-02T03:31:57;8.70;98.10
3648;DHT22;1840;48.892;15.312;2023-05-02T03:34:26;8.60;98.80
3648;DHT22;1840;48.892;15.312;2023-05-02T03:36:54;8.60;98.80
3648;DHT22;1840;48.892;15.312;2023-05-02T03:39:22;8.70;98.70
3648;DHT22;1840;48.892;15.312;2023-05-02T03:41:50;8.80;98.60
3648;DHT22;1840;48.892;15.312;2023-05-02T03:44:19;8.70;98.70
3648;DHT22;1840;48.892;15.312;2023-05-02T03:46:47;8.80;98.60
3648;DHT22;1840;48.892;15.312;2023-05-02T03:49:15;8.70;98.50
3648;DHT22;1840;48.892;15.312;2023-05-02T03:51:46;8.80;98.60
3648;DHT22;1840;48.892;15.312;2023-05-02T03:54:14;8.70;98.60
3648;DHT22;1840;48.892;15.312;2023-05-02T03:56:42;8.60;98.80
3648;DHT22;1840;48.892;15.312;2023-05-02T03:59:10;8.70;98.80
3648;DHT22;1840;48.892;15.312;2023-05-02T04:01:38;8.90;98.60
3648;DHT22;1840;48.892;15.312;2023-05-02T04:04:06;8.80;98.90
3648;DHT22;1840;48.892;15.312;2023-05-02T04:06:35;8.70;98.80
3648;DHT22;1840;48.892;15.312;2023-05-02T04:09:05;8.80;98.80
3648;DHT22;1840;48.892;15.312;2023-05-02T04:11:33;8.80;99.00
3648;DHT22;1840;48.892;15.312;2023-05-02T04:14:01;8.90;99.20
3648;DHT22;1840;48.892;15.312;2023-05-02T04:16:30;9.00;98.80
3648;DHT22;1840;48.892;15.312;2023-05-02T04:19:00;9.10;98.70
3648;DHT22;1840;48.892;15.312;2023-05-02T04:21:28;9.00;99.00
3648;DHT22;1840;48.892;15.312;2023-05-02T04:23:57;8.90;98.80
3648;DHT22;1840;48.892;15.312;2023-05-02T04:26:26;8.80;99.30
3648;DHT22;1840;48.892;15.312;2023-05-02T04:28:55;8.80;99.20
3648;DHT22;1840;48.892;15.312;2023-05-02T04:31:23;8.70;99.40
3648;DHT22;1840;48.892;15.312;2023-05-02T04:33:51;8.90;99.40
3648;DHT22;1840;48.892;15.312;2023-05-02T04:36:19;9.00;99.40
3648;DHT22;1840;48.892;15.312;2023-05-02T04:38:47;8.90;99.50
3648;DHT22;1840;48.892;15.312;2023-05-02T04:41:15;9.10;99.40
3648;DHT22;1840;48.892;15.312;2023-05-02T04:43:45;9.10;99.10
3648;DHT22;1840;48.892;15.312;2023-05-02T04:46:13;9.00;99.20
3648;DHT22;1840;48.892;15.312;2023-05-02T04:48:41;9.10;99.50
3648;DHT22;1840;48.892;15.312;2023-05-02T04:51:09;9.20;99.50
3648;DHT22;1840;48.892;15.312;2023-05-02T04:53:42;9.20;99.30
3648;DHT22;1840;48.892;15.312;2023-05-02T04:56:10;9.00;99.70
3648;DHT22;1840;48.892;15.312;2023-05-02T04:58:38;9.00;99.90
3648;DHT22;1840;48.892;15.312;2023-05-02T05:01:07;9.10;99.80
3648;DHT22;1840;48.892;15.312;2023-05-02T05:03:35;9.10;99.90
3648;DHT22;1840;48.892;15.312;2023-05-02T05:06:04;9.40;99.70
3648;DHT22;1840;48.892;15.312;2023-05-02T05:08:32;9.40;99.80
3648;DHT22;1840;48.892;15.312;2023-05-02T05:11:00;9.60;99.70
3648;DHT22;1840;48.892;15.312;2023-05-02T05:13:29;9.60;99.70
3648;DHT22;1840;48.892;15.312;2023-05-02T05:15:57;9.60;99.60
3648;DHT22;1840;48.892;15.312;2023-05-02T05:18:27;9.80;99.50
3648;DHT22;1840;48.892;15.312;2023-05-02T05:20:55;10.00;99.60
3648;DHT22;1840;48.892;15.312;2023-05-02T05:23:23;10.20;99.60
3648;DHT22;1840;48.892;15.312;2023-05-02T05:25:51;10.30;99.50
3648;DHT22;1840;48.892;15.312;2023-05-02T05:28:19;10.40;99.20
3648;DHT22;1840;48.892;15.312;2023-05-02T05:30:47;10.40;98.90
3648;DHT22;1840;48.892;15.312;2023-05-02T05:33:15;10.40;98.80
3648;DHT22;1840;48.892;15.312;2023-05-02T05:35:45;10.20;98.70
3648;DHT22;1840;48.892;15.312;2023-05-02T05:38:13;10.30;98.50
3648;DHT22;1840;48.892;15.312;2023-05-02T05:40:41;10.20;98.50
3648;DHT22;1840;48.892;15.312;2023-05-02T05:43:09;10.40;98.80
3648;DHT22;1840;48.892;15.312;2023-05-02T05:45:37;10.40;98.30
3648;DHT22;1840;48.892;15.312;2023-05-02T05:48:05;10.50;98.70
3648;DHT22;1840;48.892;15.312;2023-05-02T05:50:33;10.70;98.10
3648;DHT22;1840;48.892;15.312;2023-05-02T05:53:03;10.70;98.50
3648;DHT22;1840;48.892;15.312;2023-05-02T05:55:31;10.90;98.40
3648;DHT22;1840;48.892;15.312;2023-05-02T05:58:01;10.90;98.40
3648;DHT22;1840;48.892;15.312;2023-05-02T06:00:29;11.00;98.00
3648;DHT22;1840;48.892;15.312;2023-05-02T06:02:57;10.90;98.00
3648;DHT22;1840;48.892;15.312;2023-05-02T06:05:26;11.00;98.40
3648;DHT22;1840;48.892;15.312;2023-05-02T06:07:54;11.20;98.50
3648;DHT22;1840;48.892;15.312;2023-05-02T06:10:24;11.30;98.40
3648;DHT22;1840;48.892;15.312;2023-05-02T06:12:52;11.50;98.00
3648;DHT22;1840;48.892;15.312;2023-05-02T06:15:20;11.70;98.00
3648;DHT22;1840;48.892;15.312;2023-05-02T06:17:49;11.70;98.00
3648;DHT22;1840;48.892;15.312;2023-05-02T06:20:18;12.00;97.40
3648;DHT22;1840;48.892;15.312;2023-05-02T06:22:46;12.10;96.60
3648;DHT22;1840;48.892;15.312;2023-05-02T06:25:14;12.00;97.40
3648;DHT22;1840;48.892;15.312;2023-05-02T06:27:43;12.10;96.30
3648;DHT22;1840;48.892;15.312;2023-05-02T06:30:12;12.30;95.80
3648;DHT22;1840;48.892;15.312;2023-05-02T06:32:40;11.90;96.60
3648;DHT22;1840;48.892;15.312;2023-05-02T06:35:10;12.10;96.00
3648;DHT22;1840;48.892;15.312;2023-05-02T06:37:38;11.90;96.20
3648;DHT22;1840;48.892;15.312;2023-05-02T06:40:07;12.10;96.00
3648;DHT22;1840;48.892;15.312;2023-05-02T06:42:35;11.80;96.00
3648;DHT22;1840;48.892;15.312;2023-05-02T06:45:06;11.90;96.60
3648;DHT22;1840;48.892;15.312;2023-05-02T06:47:34;12.00;96.90
3648;DHT22;1840;48.892;15.312;2023-05-02T06:50:02;12.40;96.30
3648;DHT22;1840;48.892;15.312;2023-05-02T06:52:30;12.00;96.10
3648;DHT22;1840;48.892;15.312;2023-05-02T06:54:58;12.30;96.60
3648;DHT22;1840;48.892;15.312;2023-05-02T06:57:26;12.20;96.40
3648;DHT22;1840;48.892;15.312;2023-05-02T06:59:54;12.20;96.70
3648;DHT22;1840;48.892;15.312;2023-05-02T07:02:24;12.30;96.10
3648;DHT22;1840;48.892;15.312;2023-05-02T07:04:52;12.60;95.90
3648;DHT22;1840;48.892;15.312;2023-05-02T07:07:20;12.60;95.60
3648;DHT22;1840;48.892;15.312;2023-05-02T07:09:48;13.00;95.80
3648;DHT22;1840;48.892;15.312;2023-05-02T07:12:16;13.00;95.60
3648;DHT22;1840;48.892;15.312;2023-05-02T07:14:44;12.30;95.50
3648;DHT22;1840;48.892;15.312;2023-05-02T07:17:13;11.80;96.70
3648;DHT22;1840;48.892;15.312;2023-05-02T07:19:42;12.30;96.60
3648;DHT22;1840;48.892;15.312;2023-05-02T07:22:24;12.50;96.00
3648;DHT22;1840;48.892;15.312;2023-05-02T07:24:56;12.30;96.20
3648;DHT22;1840;48.892;15.312;2023-05-02T07:27:25;12.40;96.10
3648;DHT22;1840;48.892;15.312;2023-05-02T07:29:53;12.60;95.60
3648;DHT22;1840;48.892;15.312;2023-05-02T07:32:21;12.80;95.40
3648;DHT22;1840;48.892;15.312;2023-05-02T07:34:52;13.00;94.90
3648;DHT22;1840;48.892;15.312;2023-05-02T07:37:21;13.20;94.60
3648;DHT22;1840;48.892;15.312;2023-05-02T07:39:50;13.00;94.50
3648;DHT22;1840;48.892;15.312;2023-05-02T07:42:18;13.00;94.70
3648;DHT22;1840;48.892;15.312;2023-05-02T07:44:46;12.90;95.50
3648;DHT22;1840;48.892;15.312;2023-05-02T07:47:14;13.00;94.70
3648;DHT22;1840;48.892;15.312;2023-05-02T07:49:42;13.10;94.20
3648;DHT22;1840;48.892;15.312;2023-05-02T07:52:11;13.30;94.10
3648;DHT22;1840;48.892;15.312;2023-05-02T07:54:39;13.60;93.60
3648;DHT22;1840;48.892;15.312;2023-05-02T07:57:07;13.90;93.80
3648;DHT22;1840;48.892;15.312;2023-05-02T07:59:35;13.90;93.10
3648;DHT22;1840;48.892;15.312;2023-05-02T08:02:03;13.90;93.90
3648;DHT22;1840;48.892;15.312;2023-05-02T08:04:32;13.50;93.50
3648;DHT22;1840;48.892;15.312;2023-05-02T08:07:00;13.60;94.00
3648;DHT22;1840;48.892;15.312;2023-05-02T08:09:30;13.50;93.20
3648;DHT22;1840;48.892;15.312;2023-05-02T08:11:58;13.30;93.00
3648;DHT22;1840;48.892;15.312;2023-05-02T08:14:28;13.40;93.20
3648;DHT22;1840;48.892;15.312;2023-05-02T08:16:56;13.50;93.10
3648;DHT22;1840;48.892;15.312;2023-05-02T08:19:24;13.60;93.70
3648;DHT22;1840;48.892;15.312;2023-05-02T08:21:52;13.40;93.50
3648;DHT22;1840;48.892;15.312;2023-05-02T08:24:21;13.60;93.30
3648;DHT22;1840;48.892;15.312;2023-05-02T08:26:50;13.40;93.40
3648;DHT22;1840;48.892;15.312;2023-05-02T08:29:18;13.70;93.40
3648;DHT22;1840;48.892;15.312;2023-05-02T08:31:46;14.20;93.20
3648;DHT22;1840;48.892;15.312;2023-05-02T08:34:14;14.40;92.10
3648;DHT22;1840;48.892;15.312;2023-05-02T08:36:42;14.40;91.90
3648;DHT22;1840;48.892;15.312;2023-05-02T08:39:10;14.20;92.20
3648;DHT22;1840;48.892;15.312;2023-05-02T08:41:38;14.50;92.00
3648;DHT22;1840;48.892;15.312;2023-05-02T08:44:08;14.70;92.20
3648;DHT22;1840;48.892;15.312;2023-05-02T08:46:40;14.80;92.30
3648;DHT22;1840;48.892;15.312;2023-05-02T08:49:10;14.80;92.10
3648;DHT22;1840;48.892;15.312;2023-05-02T08:51:38;14.90;91.30
3648;DHT22;1840;48.892;15.312;2023-05-02T08:54:08;14.80;91.80
3648;DHT22;1840;48.892;15.312;2023-05-02T08:56:37;14.60;91.70
3648;DHT22;1840;48.892;15.312;2023-05-02T08:59:05;14.80;91.70
3648;DHT22;1840;48.892;15.312;2023-05-02T09:01:36;14.80;91.70
3648;DHT22;1840;48.892;15.312;2023-05-02T09:04:05;15.10;91.30
3648;DHT22;1840;48.892;15.312;2023-05-02T09:06:33;14.80;91.20
3648;DHT22;1840;48.892;15.312;2023-05-02T09:09:03;14.80;92.20
3648;DHT22;1840;48.892;15.312;2023-05-02T09:11:31;15.10;91.30
3648;DHT22;1840;48.892;15.312;2023-05-02T09:13:59;14.70;91.60
3648;DHT22;1840;48.892;15.312;2023-05-02T09:16:38;14.70;90.90
3648;DHT22;1840;48.892;15.312;2023-05-02T09:19:06;14.60;90.30
3648;DHT22;1840;48.892;15.312;2023-05-02T09:21:35;14.60;90.10
3648;DHT22;1840;48.892;15.312;2023-05-02T09:24:15;14.30;90.70
3648;DHT22;1840;48.892;15.312;2023-05-02T09:26:56;14.20;91.10
3648;DHT22;1840;48.892;15.312;2023-05-02T09:29:25;14.40;91.00
3648;DHT22;1840;48.892;15.312;2023-05-02T09:31:55;14.30;91.30
3648;DHT22;1840;48.892;15.312;2023-05-02T09:34:23;14.60;90.80
3648;DHT22;1840;48.892;15.312;2023-05-02T09:36:51;14.70;90.10
3648;DHT22;1840;48.892;15.312;2023-05-02T09:39:21;14.60;90.90
3648;DHT22;1840;48.892;15.312;2023-05-02T09:41:52;14.70;90.50
3648;DHT22;1840;48.892;15.312;2023-05-02T09:44:22;14.30;90.70
3648;DHT22;1840;48.892;15.312;2023-05-02T09:46:51;14.00;90.50
3648;DHT22;1840;48.892;15.312;2023-05-02T09:49:38;14.30;90.60
3648;DHT22;1840;48.892;15.312;2023-05-02T09:52:10;14.50;90.90
3648;DHT22;1840;48.892;15.312;2023-05-02T09:54:38;14.40;90.10
3648;DHT22;1840;48.892;15.312;2023-05-02T09:57:06;14.50;90.70
3648;DHT22;1840;48.892;15.312;2023-05-02T09:59:37;13.90;91.10
3648;DHT22;1840;48.892;15.312;2023-05-02T10:02:06;13.40;91.30
3648;DHT22;1840;48.892;15.312;2023-05-02T10:04:38;13.70;91.80
3648;DHT22;1840;48.892;15.312;2023-05-02T10:07:08;13.90;91.30
3648;DHT22;1840;48.892;15.312;2023-05-02T10:09:42;14.30;91.50
3648;DHT22;1840;48.892;15.312;2023-05-02T10:12:13;14.60;91.80
3648;DHT22;1840;48.892;15.312;2023-05-02T10:14:46;14.40;90.80
3648;DHT22;1840;48.892;15.312;2023-05-02T10:17:21;14.60;91.40
3648;DHT22;1840;48.892;15.312;2023-05-02T10:19:55;14.90;90.60
3648;DHT22;1840;48.892;15.312;2023-05-02T10:22:23;14.80;90.60
3648;DHT22;1840;48.892;15.312;2023-05-02T10:24:53;15.00;90.10
3648;DHT22;1840;48.892;15.312;2023-05-02T10:27:21;15.30;90.50
3648;DHT22;1840;48.892;15.312;2023-05-02T10:29:50;15.10;89.00
3648;DHT22;1840;48.892;15.312;2023-05-02T10:32:19;14.80;90.90
3648;DHT22;1840;48.892;15.312;2023-05-02T10:34:50;15.20;91.50
3648;DHT22;1840;48.892;15.312;2023-05-02T10:37:19;15.20;90.90
3648;DHT22;1840;48.892;15.312;2023-05-02T10:39:47;15.30;90.80
3648;DHT22;1840;48.892;15.312;2023-05-02T10:42:17;15.30;90.40
3648;DHT22;1840;48.892;15.312;2023-05-02T10:44:46;15.30;88.80
3648;DHT22;1840;48.892;15.312;2023-05-02T10:47:19;14.90;91.00
3648;DHT22;1840;48.892;15.312;2023-05-02T10:49:52;15.00;90.90
3648;DHT22;1840;48.892;15.312;2023-05-02T10:52:25;15.10;90.30
3648;DHT22;1840;48.892;15.312;2023-05-02T10:55:14;15.50;90.80
3648;DHT22;1840;48.892;15.312;2023-05-02T10:58:20;15.20;90.30
3648;DHT22;1840;48.892;15.312;2023-05-02T11:00:49;15.10;91.30
3648;DHT22;1840;48.892;15.312;2023-05-02T11:06:20;14.20;90.90
3648;DHT22;1840;48.892;15.312;2023-05-02T11:08:48;14.30;91.20
3648;DHT22;1840;48.892;15.312;2023-05-02T11:11:39;14.00;92.30
3648;DHT22;1840;48.892;15.312;2023-05-02T11:14:08;13.80;90.80
3648;DHT22;1840;48.892;15.312;2023-05-02T11:17:07;13.70;92.00
3648;DHT22;1840;48.892;15.312;2023-05-02T11:22:58;14.60;90.90
3648;DHT22;1840;48.892;15.312;2023-05-02T11:25:34;14.80;91.20
3648;DHT22;1840;48.892;15.312;2023-05-02T11:28:05;14.50;90.80
3648;DHT22;1840;48.892;15.312;2023-05-02T11:30:41;14.70;90.30
3648;DHT22;1840;48.892;15.312;2023-05-02T11:33:12;14.90;90.50
3648;DHT22;1840;48.892;15.312;2023-05-02T11:35:47;14.90;90.40
3648;DHT22;1840;48.892;15.312;2023-05-02T11:38:19;14.80;90.20
3648;DHT22;1840;48.892;15.312;2023-05-02T11:40:52;14.70;90.40
3648;DHT22;1840;48.892;15.312;2023-05-02T11:43:21;14.90;89.50
3648;DHT22;1840;48.892;15.312;2023-05-02T11:45:51;15.20;89.80
3648;DHT22;1840;48.892;15.312;2023-05-02T11:48:20;14.80;89.60
3648;DHT22;1840;48.892;15.312;2023-05-02T11:50:51;14.00;90.30
3648;DHT22;1840;48.892;15.312;2023-05-02T11:53:22;14.40;90.60
3648;DHT22;1840;48.892;15.312;2023-05-02T11:55:51;15.00;91.00
3648;DHT22;1840;48.892;15.312;2023-05-02T11:58:21;15.00;89.90
3648;DHT22;1840;48.892;15.312;2023-05-02T12:00:50;15.00;90.00
3648;DHT22;1840;48.892;15.312;2023-05-02T12:03:26;15.10;90.10
3648;DHT22;1840;48.892;15.312;2023-05-02T12:05:56;15.30;88.50
3648;DHT22;1840;48.892;15.312;2023-05-02T12:08:27;15.40;89.80
3648;DHT22;1840;48.892;15.312;2023-05-02T12:10:56;14.90;88.80
3648;DHT22;1840;48.892;15.312;2023-05-02T12:13:25;15.10;89.50
3648;DHT22;1840;48.892;15.312;2023-05-02T12:15:54;15.40;89.00
3648;DHT22;1840;48.892;15.312;2023-05-02T12:18:23;15.40;89.60
3648;DHT22;1840;48.892;15.312;2023-05-02T12:20:54;15.20;89.60
3648;DHT22;1840;48.892;15.312;2023-05-02T12:23:23;15.20;89.30
3648;DHT22;1840;48.892;15.312;2023-05-02T12:25:54;15.10;89.30
3648;DHT22;1840;48.892;15.312;2023-05-02T12:28:22;15.30;89.70
3648;DHT22;1840;48.892;15.312;2023-05-02T12:30:50;14.80;89.80
3648;DHT22;1840;48.892;15.312;2023-05-02T12:33:18;14.90;90.00
3648;DHT22;1840;48.892;15.312;2023-05-02T12:35:47;14.90;90.70
3648;DHT22;1840;48.892;15.312;2023-05-02T12:38:16;14.40;90.50
3648;DHT22;1840;48.892;15.312;2023-05-02T12:40:47;14.50;91.50
3648;DHT22;1840;48.892;15.312;2023-05-02T12:43:18;14.90;90.60
3648;DHT22;1840;48.892;15.312;2023-05-02T12:45:46;14.90;90.70
3648;DHT22;1840;48.892;15.312;2023-05-02T12:48:22;15.10;90.70
3648;DHT22;1840;48.892;15.312;2023-05-02T12:50:52;14.90;91.40
3648;DHT22;1840;48.892;15.312;2023-05-02T12:53:39;14.80;90.60
3648;DHT22;1840;48.892;15.312;2023-05-02T12:56:09;14.50;91.20
3648;DHT22;1840;48.892;15.312;2023-05-02T12:58:43;14.10;91.50
3648;DHT22;1840;48.892;15.312;2023-05-02T13:01:11;14.00;91.80
3648;DHT22;1840;48.892;15.312;2023-05-02T13:03:40;14.20;92.20
3648;DHT22;1840;48.892;15.312;2023-05-02T13:06:09;14.30;91.10
3648;DHT22;1840;48.892;15.312;2023-05-02T13:08:37;13.90;92.20
3648;DHT22;1840;48.892;15.312;2023-05-02T13:11:05;14.00;91.60
3648;DHT22;1840;48.892;15.312;2023-05-02T13:13:33;14.20;91.20
3648;DHT22;1840;48.892;15.312;2023-05-02T13:16:02;14.00;91.50
3648;DHT22;1840;48.892;15.312;2023-05-02T13:18:31;14.00;91.70
3648;DHT22;1840;48.892;15.312;2023-05-02T13:20:59;13.80;92.40
3648;DHT22;1840;48.892;15.312;2023-05-02T13:23:27;13.60;92.30
3648;DHT22;1840;48.892;15.312;2023-05-02T13:25:55;13.20;94.00
3648;DHT22;1840;48.892;15.312;2023-05-02T13:28:23;13.00;94.40
3648;DHT22;1840;48.892;15.312;2023-05-02T13:30:51;13.00;94.60
3648;DHT22;1840;48.892;15.312;2023-05-02T13:33:21;12.90;95.50
3648;DHT22;1840;48.892;15.312;2023-05-02T13:35:49;12.80;95.40
3648;DHT22;1840;48.892;15.312;2023-05-02T13:38:17;12.70;95.60
3648;DHT22;1840;48.892;15.312;2023-05-02T13:40:45;12.80;95.80
3648;DHT22;1840;48.892;15.312;2023-05-02T13:43:13;12.90;96.20
3648;DHT22;1840;48.892;15.312;2023-05-02T13:45:41;12.90;96.00
3648;DHT22;1840;48.892;15.312;2023-05-02T13:48:09;13.00;95.20
3648;DHT22;1840;48.892;15.312;2023-05-02T13:50:39;12.90;95.40
3648;DHT22;1840;48.892;15.312;2023-05-02T13:53:07;12.90;95.80
3648;DHT22;1840;48.892;15.312;2023-05-02T13:55:35;12.90;96.40
3648;DHT22;1840;48.892;15.312;2023-05-02T13:58:03;13.00;96.10
3648;DHT22;1840;48.892;15.312;2023-05-02T14:00:31;13.00;95.80
3648;DHT22;1840;48.892;15.312;2023-05-02T14:03:00;13.20;95.40
3648;DHT22;1840;48.892;15.312;2023-05-02T14:05:28;13.40;95.00
3648;DHT22;1840;48.892;15.312;2023-05-02T14:07:57;13.60;94.10
3648;DHT22;1840;48.892;15.312;2023-05-02T14:10:25;13.30;94.80
3648;DHT22;1840;48.892;15.312;2023-05-02T14:12:53;13.50;94.90
3648;DHT22;1840;48.892;15.312;2023-05-02T14:15:21;13.60;94.50
3648;DHT22;1840;48.892;15.312;2023-05-02T14:17:49;13.70;94.40
3648;DHT22;1840;48.892;15.312;2023-05-02T14:20:18;13.80;94.60
3648;DHT22;1840;48.892;15.312;2023-05-02T14:22:46;13.70;94.00
3648;DHT22;1840;48.892;15.312;2023-05-02T14:25:15;13.70;94.40
3648;DHT22;1840;48.892;15.312;2023-05-02T14:27:45;13.90;94.20
3648;DHT22;1840;48.892;15.312;2023-05-02T14:30:13;13.90;94.30
3648;DHT22;1840;48.892;15.312;2023-05-02T14:32:41;13.90;94.30
3648;DHT22;1840;48.892;15.312;2023-05-02T14:35:09;13.90;94.00
3648;DHT22;1840;48.892;15.312;2023-05-02T14:37:37;14.00;93.60
3648;DHT22;1840;48.892;15.312;2023-05-02T14:40:07;14.00;93.60
3648;DHT22;1840;48.892;15.312;2023-05-02T14:42:36;14.00;93.70
3648;DHT22;1840;48.892;15.312;2023-05-02T14:45:05;14.00;93.40
3648;DHT22;1840;48.892;15.312;2023-05-02T14:47:34;14.10;93.20
3648;DHT22;1840;48.892;15.312;2023-05-02T14:50:02;14.10;93.20
3648;DHT22;1840;48.892;15.312;2023-05-02T14:52:31;14.00;93.00
3648;DHT22;1840;48.892;15.312;2023-05-02T14:54:59;13.90;93.20
3648;DHT22;1840;48.892;15.312;2023-05-02T14:57:27;14.10;93.00
3648;DHT22;1840;48.892;15.312;2023-05-02T14:59:56;14.10;92.80
3648;DHT22;1840;48.892;15.312;2023-05-02T15:02:25;14.20;92.70
3648;DHT22;1840;48.892;15.312;2023-05-02T15:04:54;14.20;92.90
3648;DHT22;1840;48.892;15.312;2023-05-02T15:07:22;14.00;92.20
3648;DHT22;1840;48.892;15.312;2023-05-02T15:09:50;14.20;92.10
3648;DHT22;1840;48.892;15.312;2023-05-02T15:12:18;14.20;92.80
3648;DHT22;1840;48.892;15.312;2023-05-02T15:14:46;14.30;92.70
3648;DHT22;1840;48.892;15.312;2023-05-02T15:17:15;14.30;92.40
3648;DHT22;1840;48.892;15.312;2023-05-02T15:19:43;14.30;92.30
3648;DHT22;1840;48.892;15.312;2023-05-02T15:22:11;14.20;92.00
3648;DHT22;1840;48.892;15.312;2023-05-02T15:24:41;14.30;92.10
3648;DHT22;1840;48.892;15.312;2023-05-02T15:27:09;14.30;91.60
3648;DHT22;1840;48.892;15.312;2023-05-02T15:29:37;14.40;91.50
3648;DHT22;1840;48.892;15.312;2023-05-02T15:32:05;14.50;91.40
3648;DHT22;1840;48.892;15.312;2023-05-02T15:34:35;14.40;91.50
3648;DHT22;1840;48.892;15.312;2023-05-02T15:37:03;14.40;91.30
3648;DHT22;1840;48.892;15.312;2023-05-02T15:39:31;14.20;91.30
3648;DHT22;1840;48.892;15.312;2023-05-02T15:42:01;14.40;91.10
3648;DHT22;1840;48.892;15.312;2023-05-02T15:44:34;14.30;91.10
3648;DHT22;1840;48.892;15.312;2023-05-02T15:47:03;14.40;91.50
3648;DHT22;1840;48.892;15.312;2023-05-02T15:49:31;14.40;90.80
3648;DHT22;1840;48.892;15.312;2023-05-02T15:52:03;14.30;90.90
3648;DHT22;1840;48.892;15.312;2023-05-02T15:54:31;14.30;90.80
3648;DHT22;1840;48.892;15.312;2023-05-02T15:57:02;14.30;90.50
3648;DHT22;1840;48.892;15.312;2023-05-02T15:59:30;14.30;90.50
3648;DHT22;1840;48.892;15.312;2023-05-02T16:01:58;14.30;91.10
3648;DHT22;1840;48.892;15.312;2023-05-02T16:04:26;14.30;90.80
3648;DHT22;1840;48.892;15.312;2023-05-02T16:06:54;14.20;90.90
3648;DHT22;1840;48.892;15.312;2023-05-02T16:09:24;14.30;91.10
3648;DHT22;1840;48.892;15.312;2023-05-02T16:11:52;14.20;91.00
3648;DHT22;1840;48.892;15.312;2023-05-02T16:14:20;14.20;91.40